Latest Weather Observations for Cape Naturaliste

IDW60801

Issued at 6:43 pm WST Thursday 21 November 2019 (issued every 10 minutes, with the page automatically refreshed every 10 minutes)

About weather observations | Map of weather stations | Latest weather observations for WA | Other Formats
Station Details ID: 009519 Name: CAPE NATURALISTE Lat: -33.54 Lon: 115.02 Height: 109.0 m
Data from the previous 72 hours. | See also: Recent months at Cape Naturaliste
Date/Time
WST
Temp
°C
App
Temp
°C
Dew
Point
°C
Rel
Hum
%
Delta-T
°C
Wind Press
QNH
hPa
Press
MSL
hPa
Rain since
9am
mm
Dir  Spd
km/h
Gust
km/h
Spd
kts
Gust
kts
21/06:30pm 15.7 10.8 8.4 62 3.7 SW 24 35 13 19 1020.3 1020.1 0.0
21/06:00pm 15.7 10.5 7.2 57 4.2 SW 24 30 13 16 1020.0 1019.8 0.0
21/05:30pm 16.6 11.3 7.0 53 4.8 WSW 24 30 13 16 1019.7 1019.5 0.0
21/05:00pm 18.3 13.6 7.7 50 5.4 SW 22 33 12 18 1019.4 1019.2 0.0
21/04:30pm 19.0 12.9 6.8 45 6.2 WSW 28 35 15 19 1019.4 1019.2 0.0
21/04:00pm 19.7 14.5 8.7 49 5.8 SW 26 33 14 18 1019.3 1019.1 0.0
21/03:30pm 19.8 14.1 8.5 48 5.9 WSW 28 35 15 19 1019.3 1019.1 0.0
21/03:00pm 20.3 15.4 8.6 47 6.1 WSW 24 32 13 17 1019.3 1019.1 0.0
21/02:30pm 20.1 14.5 7.1 43 6.6 WSW 26 33 14 18 1019.4 1019.2 0.0
21/02:00pm 20.5 15.2 8.5 46 6.3 WSW 26 35 14 19 1019.5 1019.3 0.0
21/01:30pm 19.6 14.3 7.0 44 6.4 WSW 24 32 13 17 1019.6 1019.4 0.0
21/01:00pm 20.3 15.0 8.6 47 6.1 W 26 32 14 17 1019.8 1019.6 0.0
21/12:30pm 18.7 13.9 7.2 47 5.8 WSW 22 30 12 16 1020.0 1019.8 0.0
21/12:00pm 17.9 14.0 7.3 50 5.3 W 17 24 9 13 1020.2 1020.0 0.0
21/11:30am 17.8 14.1 7.8 52 5.1 WNW 17 24 9 13 1020.3 1020.1 0.0
21/11:00am 18.3 13.9 6.5 46 5.9 WNW 19 24 10 13 1020.4 1020.2 0.0
21/10:30am 19.1 14.7 6.6 44 6.3 WNW 19 24 10 13 1020.6 1020.4 0.0
21/10:00am 18.1 13.7 7.2 49 5.5 W 20 28 11 15 1020.9 1020.7 0.0
21/09:30am 18.2 14.5 7.9 51 5.3 W 17 24 9 13 1020.9 1020.7 0.0
21/09:00am 16.9 12.8 6.1 49 5.3 W 17 24 9 13 1020.9 1020.7 0.0
21/08:30am 16.9 12.9 6.7 51 5.1 W 17 24 9 13 1020.8 1020.6 0.0
21/08:00am 17.6 14.4 6.8 49 5.4 WNW 13 20 7 11 1020.6 1020.4 0.0
21/07:30am 16.0 12.5 7.0 55 4.5 W 15 22 8 12 1020.6 1020.4 0.0
21/07:00am 15.1 11.5 6.9 58 4.0 W 15 20 8 11 1020.4 1020.2 0.0
21/06:30am 14.8 10.4 6.4 57 4.1 W 19 24 10 13 1020.2 1020.0 0.0
21/06:00am 13.8 10.0 5.9 59 3.8 WSW 15 20 8 11 1020.0 1019.8 0.0
21/05:30am 13.5 9.1 6.4 62 3.4 WSW 19 24 10 13 1019.8 1019.6 0.0
21/05:00am 13.6 9.0 6.7 63 3.3 WSW 20 26 11 14 1019.5 1019.3 0.0
21/04:30am 13.3 9.4 6.9 65 3.1 W 17 24 9 13 1019.1 1018.9 0.0
21/04:00am 12.6 10.0 6.2 65 3.0 WSW 9 13 5 7 1019.1 1018.9 0.0
21/03:30am 12.3 8.0 5.2 62 3.3 WSW 17 22 9 12 1018.8 1018.7 0.0
21/03:00am 12.3 8.9 5.7 64 3.1 SW 13 20 7 11 1018.8 1018.7 0.0
21/02:30am 11.0 8.0 4.0 62 3.1 SE 9 11 5 6 1018.8 1018.7 0.0
21/02:00am 10.8 7.8 4.0 63 3.0 SE 9 11 5 6 1018.8 1018.7 0.0
21/01:30am 10.5 7.1 4.0 64 2.9 SE 11 13 6 7 1019.0 1018.8 0.0
21/01:00am 10.5 6.7 4.0 64 2.9 SE 13 15 7 8 1019.2 1019.0 0.0
21/12:30am 10.4 6.6 3.9 64 2.9 SE 13 13 7 7 1019.5 1019.3 0.0
21/12:00am 10.4 6.6 4.1 65 2.8 SSE 13 15 7 8 1019.9 1019.7 0.0
 
Date/Time
WST
Temp
°C
App
Temp
°C
Dew
Point
°C
Rel
Hum
%
Delta-T
°C
Wind Press
QNH
hPa
Press
MSL
hPa
Rain since
9am
mm
Dir  Spd
km/h
Gust
km/h
Spd
kts
Gust
kts
20/11:30pm 10.6 6.5 4.1 64 2.9 S 15 17 8 9 1020.1 1019.9 0.0
20/11:00pm 10.8 6.3 4.3 64 2.9 S 17 20 9 11 1020.2 1020.0 0.0
20/10:30pm 10.8 6.4 4.5 65 2.8 SSE 17 19 9 10 1020.4 1020.2 0.0
20/10:00pm 11.2 6.8 4.7 64 2.9 SSE 17 20 9 11 1020.6 1020.4 0.0
20/09:30pm 11.5 7.4 4.3 61 3.3 SSE 15 17 8 9 1020.6 1020.4 0.0
20/09:00pm 12.3 7.9 4.5 59 3.6 S 17 20 9 11 1020.4 1020.2 0.0
20/08:30pm 12.6 7.7 4.3 57 3.8 S 19 30 10 16 1020.5 1020.3 0.0
20/08:00pm 13.4 8.2 3.8 52 4.3 SSW 20 26 11 14 1020.5 1020.3 0.0
20/07:30pm 13.5 8.5 4.6 55 4.1 SSW 20 28 11 15 1020.3 1020.1 0.0
20/07:00pm 13.9 9.0 5.0 55 4.2 SSW 20 30 11 16 1020.0 1019.8 0.0
20/06:30pm 14.9 9.7 5.7 54 4.4 SSW 22 32 12 17 1019.6 1019.4 0.0
20/06:00pm 14.7 9.2 4.1 49 4.9 SSW 22 32 12 17 1019.1 1018.9 0.0
20/05:30pm 16.3 9.9 5.0 47 5.4 SSW 28 37 15 20 1018.5 1018.4 0.0
20/05:00pm 16.4 10.6 6.2 51 5.0 SSW 26 35 14 19 1018.3 1018.2 0.0
20/04:30pm 16.0 9.2 5.3 49 5.1 SSW 30 41 16 22 1018.0 1017.8 0.0
20/04:00pm 17.5 10.6 4.8 43 6.1 SSW 30 46 16 25 1017.9 1017.7 0.0
20/03:30pm 17.9 10.9 6.1 46 5.8 SSW 32 43 17 23 1017.7 1017.5 0.0
20/03:00pm 18.4 12.1 7.2 48 5.7 SSW 30 39 16 21 1017.5 1017.3 0.0
20/02:30pm 18.8 12.3 6.3 44 6.2 SSW 30 39 16 21 1017.3 1017.1 0.0
20/02:00pm 18.8 11.8 6.0 43 6.3 SSW 32 43 17 23 1017.2 1017.0 0.0
20/01:30pm 19.1 11.9 5.2 40 6.8 SSW 32 48 17 26 1017.0 1016.8 0.0
20/01:00pm 18.5 11.3 5.7 43 6.3 SSW 33 50 18 27 1016.8 1016.6 0.0
20/12:30pm 18.7 11.2 6.2 44 6.2 SSW 35 50 19 27 1016.8 1016.6 0.0
20/12:10pm 19.0 11.7 4.7 39 6.9 SSW 32 50 17 27 1016.7 1016.5 0.0
20/12:00pm 18.1 10.9 6.0 45 6.0 SSW 33 46 18 25 1016.8 1016.6 0.0
20/11:34am 18.0 10.5 6.2 46 5.8 SSW 35 54 19 29 1016.4 1016.2 0.0
20/11:30am 18.4 10.6 4.9 41 6.5 SSW 35 48 19 26 1016.5 1016.3 0.0
20/11:12am 18.7 11.0 5.5 42 6.5 SSW 35 54 19 29 1016.4 1016.2 0.0
20/11:00am 17.1 8.4 4.1 42 6.1 SSW 39 52 21 28 1016.3 1016.1 0.0
20/10:39am 17.4 9.0 5.7 46 5.7 SSW 39 57 21 31 1016.2 1016.0 0.0
20/10:30am 17.8 9.7 5.4 44 6.0 SSW 37 54 20 29 1016.1 1015.9 0.0
20/10:00am 15.4 7.2 6.4 55 4.4 SSW 39 59 21 32 1015.7 1015.5 0.0
20/09:30am 16.8 8.4 5.4 47 5.5 SSW 39 57 21 31 1015.3 1015.1 0.0
20/09:16am 16.4 8.8 5.7 49 5.2 SSW 35 54 19 29 1015.1 1014.9 0.0
20/09:00am 14.9 6.2 6.2 56 4.2 SSW 41 57 22 31 1015.0 1014.8 2.2
20/08:53am 15.2 6.9 6.2 55 4.4 SSW 39 57 21 31 1014.8 1014.6 2.2
20/08:30am 13.7 5.1 6.3 61 3.6 SW 41 57 22 31 1014.5 1014.3 2.0
20/08:00am 14.9 6.2 6.0 55 4.3 SSW 41 59 22 32 1014.1 1013.9 2.0
20/07:38am 14.5 5.2 5.0 53 4.5 SW 43 61 23 33 1013.7 1013.5 2.0
20/07:30am 14.1 5.8 6.2 59 3.8 SSW 39 50 21 27 1013.5 1013.3 2.0
20/07:02am 14.5 4.5 6.3 58 4.0 SW 48 69 26 37 1012.7 1012.5 2.0
20/07:00am 14.4 4.4 6.0 57 4.0 SW 48 65 26 35 1012.8 1012.6 2.0
20/06:30am 13.4 3.4 4.3 54 4.2 SW 46 65 25 35 1012.4 1012.2 2.0
20/06:03am 13.7 3.6 7.5 66 3.1 SW 50 85 27 46 1011.5 1011.3 2.0
20/06:00am 13.4 3.7 5.6 59 3.7 SW 46 61 25 33 1011.6 1011.4 2.0
20/05:30am 12.1 2.2 6.8 70 2.5 SW 48 70 26 38 1011.0 1010.8 2.0
20/05:04am 13.2 4.7 9.3 77 2.0 SW 44 70 24 38 1010.6 1010.4 1.6
20/05:00am 13.5 4.8 7.5 67 3.0 SW 43 56 23 30 1010.7 1010.5 1.6
20/04:46am 13.3 4.5 8.0 70 2.6 SW 44 63 24 34 1010.5 1010.2 1.6
20/04:30am 13.8 5.2 8.0 68 2.9 SW 43 57 23 31 1010.1 1009.8 1.6
20/04:06am 13.4 4.5 9.1 75 2.2 SW 46 65 25 35 1009.9 1009.6 1.6
20/04:00am 13.2 3.4 8.7 74 2.3 SW 50 65 27 35 1010.0 1009.7 1.6
20/03:35am 14.3 4.4 9.9 75 2.3 SW 52 72 28 39 1009.5 1009.2 1.2
20/03:30am 14.2 4.1 9.0 71 2.7 SW 52 67 28 36 1009.5 1009.2 1.2
20/03:00am 13.6 4.4 9.6 77 2.1 WSW 48 72 26 39 1009.0 1008.8 1.2
20/02:30am 13.8 3.5 11.8 88 1.1 SW 57 78 31 42 1009.0 1008.8 1.2
20/02:16am 13.6 4.0 9.6 77 2.1 WSW 50 69 27 37 1008.9 1008.7 1.2
20/02:00am 13.5 5.0 10.7 83 1.5 WSW 46 59 25 32 1008.9 1008.7 1.2
20/01:46am 13.5 6.0 10.9 84 1.4 WSW 41 59 22 32 1009.0 1008.8 1.2
20/01:30am 13.6 6.3 11.7 88 1.0 WSW 41 54 22 29 1009.1 1008.9 1.2
20/01:13am 16.1 8.4 10.2 68 3.1 W 41 67 22 36 1009.1 1008.9 0.0
20/01:00am 16.0 8.5 9.4 65 3.4 W 39 50 21 27 1009.1 1008.9 0.0
20/12:30am 15.3 9.3 10.1 71 2.7 WSW 32 46 17 25 1009.5 1009.2 0.0
20/12:00am 15.3 8.4 10.3 72 2.6 WSW 37 56 20 30 1009.8 1009.5 0.0
 
Date/Time
WST
Temp
°C
App
Temp
°C
Dew
Point
°C
Rel
Hum
%
Delta-T
°C
Wind Press
QNH
hPa
Press
MSL
hPa
Rain since
9am
mm
Dir  Spd
km/h
Gust
km/h
Spd
kts
Gust
kts
19/11:30pm 15.7 8.1 8.9 64 3.5 WSW 39 50 21 27 1010.1 1009.8 0.0
19/11:04pm 15.6 8.1 9.3 66 3.3 WSW 39 57 21 31 1010.2 1009.9 0.0
19/11:00pm 15.7 7.3 9.1 65 3.4 WSW 43 57 23 31 1010.2 1009.9 0.0
19/10:30pm 15.4 8.0 11.2 76 2.3 WSW 41 56 22 30 1010.4 1010.1 0.0
19/10:16pm 16.3 10.8 11.7 74 2.5 WSW 32 52 17 28 1010.4 1010.1 0.0
19/10:00pm 16.0 9.9 10.5 70 2.9 WSW 33 43 18 23 1010.6 1010.4 0.0
19/09:30pm 15.9 9.8 9.8 67 3.2 W 32 43 17 23 1010.7 1010.5 0.0
19/09:00pm 15.9 9.6 9.6 66 3.3 WSW 33 46 18 25 1010.9 1010.7 0.0
19/08:30pm 15.8 9.6 9.5 66 3.3 WSW 32 39 17 21 1010.9 1010.7 0.0
19/08:00pm 15.5 8.8 8.3 62 3.7 WSW 33 44 18 24 1010.8 1010.6 0.0
19/07:30pm 15.6 8.6 8.4 62 3.7 WSW 35 44 19 24 1010.6 1010.4 0.0
19/07:00pm 16.2 10.2 10.7 70 2.9 WSW 33 41 18 22 1010.6 1010.4 0.0
19/06:30pm 16.1 9.6 9.1 63 3.6 SW 33 44 18 24 1010.3 1010.0 0.0
19/06:00pm 17.2 11.0 10.1 63 3.8 SW 33 46 18 25 1010.0 1009.7 0.0
19/05:30pm 18.1 12.1 10.0 59 4.3 SW 32 43 17 23 1009.8 1009.5 0.0
19/05:00pm 18.1 12.4 9.7 58 4.5 SW 30 43 16 23 1009.6 1009.3 0.0
19/04:30pm 19.1 13.8 9.9 55 4.9 SW 28 37 15 20 1009.7 1009.4 0.0
19/04:00pm 18.6 12.3 9.7 56 4.7 SW 33 48 18 26 1009.9 1009.6 0.0
19/03:30pm 19.8 13.9 10.5 55 5.1 SSW 32 41 17 22 1010.0 1009.7 0.0
19/03:00pm 19.9 13.3 10.0 53 5.3 SSW 35 48 19 26 1009.8 1009.5 0.0
19/02:30pm 20.0 13.8 9.9 52 5.4 SSW 33 48 18 26 1009.9 1009.6 0.0
19/02:00pm 19.7 12.8 10.4 55 5.1 SSW 37 50 20 27 1010.2 1009.9 0.0
19/01:30pm 20.3 14.5 11.5 57 4.9 SSW 33 46 18 25 1010.3 1010.0 0.0
19/01:00pm 19.9 14.2 11.7 59 4.6 SSW 33 44 18 24 1010.2 1009.9 0.0
19/12:30pm 19.5 14.0 12.0 62 4.2 SSW 32 48 17 26 1010.3 1010.0 0.0
19/12:00pm 19.8 14.6 12.8 64 4.0 SSW 32 43 17 23 1010.4 1010.1 0.0
19/11:30am 18.4 13.0 12.8 70 3.2 SSW 33 46 18 25 1010.3 1010.0 0.0
19/11:00am 19.7 14.4 13.2 66 3.7 SSW 33 46 18 25 1010.3 1010.0 0.0
19/10:30am 20.5 14.9 13.2 63 4.2 SSW 35 52 19 28 1010.5 1010.2 0.0
19/10:00am 20.4 14.2 13.8 66 3.8 SSW 39 57 21 31 1010.3 1010.0 0.0
19/09:59am 20.4 14.3 14.1 67 3.7 SSW 39 57 21 31 1010.3 1010.0 0.0
19/09:30am 18.9 13.2 14.2 74 2.7 SSW 37 52 20 28 1010.5 1010.2 0.0
19/09:00am 19.2 14.6 14.7 75 2.6 SSW 32 44 17 24 1010.8 1010.6 0.0
19/08:30am 18.1 13.8 14.4 79 2.1 SSW 30 41 16 22 1011.0 1010.8 0.0
19/08:00am 18.1 15.3 14.4 79 2.1 SSW 22 33 12 18 1011.2 1011.0 0.0
19/07:30am 17.8 15.3 14.1 79 2.1 S 20 30 11 16 1011.2 1011.0 0.0
19/07:00am 16.9 14.3 13.8 82 1.8 S 20 32 11 17 1011.5 1011.3 0.0
19/06:30am 16.0 13.9 13.5 85 1.4 SSW 17 20 9 11 1011.7 1011.5 0.0
19/06:00am 15.4 13.6 13.2 87 1.2 S 15 24 8 13 1011.4 1011.2 0.0
19/05:30am 15.1 13.2 13.1 88 1.1 SSE 15 26 8 14 1011.2 1011.0 0.0
19/05:00am 14.9 13.0 12.9 88 1.1 SSW 15 19 8 10 1010.7 1010.5 0.0
19/04:30am 15.1 12.5 13.1 88 1.1 S 19 24 10 13 1010.8 1010.6 0.0
19/04:00am 15.2 12.6 13.2 88 1.1 S 19 26 10 14 1010.9 1010.7 0.0
19/03:30am 15.3 12.2 13.5 89 1.0 SSW 22 30 12 16 1011.0 1010.8 0.0
19/03:00am 15.5 13.0 13.5 88 1.1 SSW 19 24 10 13 1011.2 1011.0 0.0
19/02:30am 15.6 13.8 13.3 86 1.3 S 15 22 8 12 1011.4 1011.2 0.0
19/02:00am 15.7 13.0 13.4 86 1.3 SSE 20 28 11 15 1011.3 1011.1 0.0
19/01:30am 15.5 12.9 13.3 87 1.2 S 19 24 10 13 1011.8 1011.6 0.0
19/01:00am 15.5 12.4 13.5 88 1.1 S 22 32 12 17 1012.2 1012.0 0.0
19/12:30am 15.5 12.9 13.7 89 1.0 S 20 30 11 16 1012.7 1012.5 0.0
19/12:00am 15.6 12.6 13.6 88 1.1 S 22 28 12 15 1013.0 1012.8 0.0
 
Date/Time
WST
Temp
°C
App
Temp
°C
Dew
Point
°C
Rel
Hum
%
Delta-T
°C
Wind Press
QNH
hPa
Press
MSL
hPa
Rain since
9am
mm
Dir  Spd
km/h
Gust
km/h
Spd
kts
Gust
kts
18/11:30pm 15.6 12.9 13.6 88 1.1 S 20 26 11 14 1013.3 1013.1 0.0
18/11:00pm 15.8 12.8 13.8 88 1.1 S 22 26 12 14 1013.7 1013.5 0.0
18/10:30pm 16.0 13.4 13.8 87 1.2 S 20 28 11 15 1013.8 1013.6 0.0
18/10:00pm 16.2 13.6 13.9 86 1.3 S 20 28 11 15 1014.3 1014.1 0.0
18/09:30pm 16.4 13.5 13.9 85 1.4 SSE 22 33 12 18 1014.2 1014.0 0.0
18/09:00pm 16.6 14.0 13.9 84 1.5 S 20 30 11 16 1014.1 1013.9 0.0
18/08:30pm 16.9 14.6 14.2 84 1.5 S 19 28 10 15 1014.2 1014.0 0.0
18/08:00pm 17.5 14.4 14.4 82 1.8 S 24 35 13 19 1014.1 1013.9 0.0
18/07:30pm 17.6 15.6 13.9 79 2.1 SSE 17 24 9 13 1014.0 1013.8 0.0
18/07:00pm 18.2 15.8 15.5 84 1.6 S 22 32 12 17 1014.0 1013.8 0.0

Other formats

Comma delimited format used in spreadsheet applications
http://www.bom.gov.au/fwo/IDW60801/IDW60801.94600.axf

JavaScript Object Notation format (JSON) in row-major order
http://www.bom.gov.au/fwo/IDW60801/IDW60801.94600.json

Data quality

Most of these data are generated automatically and are frequently updated. Quality checks on data are not normally performed. It is possible for incorrect values to appear. Refer to information at About Latest Weather Observations and please check the disclaimer before using these data.